sensor_id;sensor_type;location;lat;lon;timestamp;temperature;humidity
13123;DHT22;6627;50.920;12.050;2022-10-17T00:00:47;13.10;99.90
13123;DHT22;6627;50.920;12.050;2022-10-17T00:03:15;13.00;99.90
13123;DHT22;6627;50.920;12.050;2022-10-17T00:05:44;12.70;99.90
13123;DHT22;6627;50.920;12.050;2022-10-17T00:08:15;12.70;99.90
13123;DHT22;6627;50.920;12.050;2022-10-17T00:10:45;12.70;99.90
13123;DHT22;6627;50.920;12.050;2022-10-17T00:13:21;12.60;99.90
13123;DHT22;6627;50.920;12.050;2022-10-17T00:15:49;12.70;99.90
13123;DHT22;6627;50.920;12.050;2022-10-17T00:18:16;12.60;99.90
13123;DHT22;6627;50.920;12.050;2022-10-17T00:20:44;12.50;99.90
13123;DHT22;6627;50.920;12.050;2022-10-17T00:23:11;12.20;99.90
13123;DHT22;6627;50.920;12.050;2022-10-17T00:25:40;12.10;99.90
13123;DHT22;6627;50.920;12.050;2022-10-17T00:28:08;11.90;99.90
13123;DHT22;6627;50.920;12.050;2022-10-17T00:30:35;11.80;99.90
13123;DHT22;6627;50.920;12.050;2022-10-17T00:33:03;11.80;99.90
13123;DHT22;6627;50.920;12.050;2022-10-17T00:35:30;11.70;99.90
13123;DHT22;6627;50.920;12.050;2022-10-17T00:37:58;11.70;99.90
13123;DHT22;6627;50.920;12.050;2022-10-17T00:40:25;11.70;99.90
13123;DHT22;6627;50.920;12.050;2022-10-17T00:42:54;11.60;99.90
13123;DHT22;6627;50.920;12.050;2022-10-17T00:45:25;11.60;99.90
13123;DHT22;6627;50.920;12.050;2022-10-17T00:47:57;11.60;99.90
13123;DHT22;6627;50.920;12.050;2022-10-17T00:50:27;11.50;99.90
13123;DHT22;6627;50.920;12.050;2022-10-17T00:53:02;11.50;99.90
13123;DHT22;6627;50.920;12.050;2022-10-17T00:55:34;11.60;99.90
13123;DHT22;6627;50.920;12.050;2022-10-17T00:58:06;11.70;99.90
13123;DHT22;6627;50.920;12.050;2022-10-17T01:00:35;11.80;99.90
13123;DHT22;6627;50.920;12.050;2022-10-17T01:03:02;12.00;99.90
13123;DHT22;6627;50.920;12.050;2022-10-17T01:05:30;12.00;99.90
13123;DHT22;6627;50.920;12.050;2022-10-17T01:07:58;12.10;99.90
13123;DHT22;6627;50.920;12.050;2022-10-17T01:10:29;12.20;99.90
13123;DHT22;6627;50.920;12.050;2022-10-17T01:13:09;12.30;99.90
13123;DHT22;6627;50.920;12.050;2022-10-17T01:15:51;12.30;99.90
13123;DHT22;6627;50.920;12.050;2022-10-17T01:18:39;12.40;99.90
13123;DHT22;6627;50.920;12.050;2022-10-17T01:21:37;12.40;99.90
13123;DHT22;6627;50.920;12.050;2022-10-17T01:24:32;12.50;99.90
13123;DHT22;6627;50.920;12.050;2022-10-17T01:27:36;12.50;99.90
13123;DHT22;6627;50.920;12.050;2022-10-17T01:30:56;12.60;99.90
13123;DHT22;6627;50.920;12.050;2022-10-17T01:33:36;12.70;99.90
13123;DHT22;6627;50.920;12.050;2022-10-17T01:36:13;12.70;99.90
13123;DHT22;6627;50.920;12.050;2022-10-17T01:38:51;12.90;99.90
13123;DHT22;6627;50.920;12.050;2022-10-17T01:41:27;12.90;99.90
13123;DHT22;6627;50.920;12.050;2022-10-17T01:44:08;13.10;99.90
13123;DHT22;6627;50.920;12.050;2022-10-17T01:46:42;13.20;99.90
13123;DHT22;6627;50.920;12.050;2022-10-17T01:49:15;13.40;99.90
13123;DHT22;6627;50.920;12.050;2022-10-17T01:51:49;13.30;99.90
13123;DHT22;6627;50.920;12.050;2022-10-17T01:54:24;13.20;99.90
13123;DHT22;6627;50.920;12.050;2022-10-17T01:56:59;13.30;99.90
13123;DHT22;6627;50.920;12.050;2022-10-17T01:59:36;13.20;99.90
13123;DHT22;6627;50.920;12.050;2022-10-17T02:02:09;13.30;99.90
13123;DHT22;6627;50.920;12.050;2022-10-17T02:04:41;13.20;99.90
13123;DHT22;6627;50.920;12.050;2022-10-17T02:07:11;13.20;99.90
13123;DHT22;6627;50.920;12.050;2022-10-17T02:09:39;13.30;99.90
13123;DHT22;6627;50.920;12.050;2022-10-17T02:12:23;13.30;99.90
13123;DHT22;6627;50.920;12.050;2022-10-17T02:15:22;13.30;99.90
13123;DHT22;6627;50.920;12.050;2022-10-17T02:18:15;13.20;99.90
13123;DHT22;6627;50.920;12.050;2022-10-17T02:20:53;13.20;99.90
13123;DHT22;6627;50.920;12.050;2022-10-17T02:23:31;13.20;99.90
13123;DHT22;6627;50.920;12.050;2022-10-17T02:26:08;13.20;99.90
13123;DHT22;6627;50.920;12.050;2022-10-17T02:28:46;13.20;99.90
13123;DHT22;6627;50.920;12.050;2022-10-17T02:31:25;13.20;99.90
13123;DHT22;6627;50.920;12.050;2022-10-17T02:34:00;13.10;99.90
13123;DHT22;6627;50.920;12.050;2022-10-17T02:36:33;13.10;99.90
13123;DHT22;6627;50.920;12.050;2022-10-17T02:39:05;13.30;99.90
13123;DHT22;6627;50.920;12.050;2022-10-17T02:41:36;13.20;99.90
13123;DHT22;6627;50.920;12.050;2022-10-17T02:44:06;13.30;99.90
13123;DHT22;6627;50.920;12.050;2022-10-17T02:46:36;13.40;99.90
13123;DHT22;6627;50.920;12.050;2022-10-17T02:49:14;13.20;99.90
13123;DHT22;6627;50.920;12.050;2022-10-17T02:51:46;13.40;99.90
13123;DHT22;6627;50.920;12.050;2022-10-17T02:54:23;13.30;99.90
13123;DHT22;6627;50.920;12.050;2022-10-17T02:57:00;13.30;99.90
13123;DHT22;6627;50.920;12.050;2022-10-17T02:59:34;13.20;99.90
13123;DHT22;6627;50.920;12.050;2022-10-17T03:02:04;13.20;99.90
13123;DHT22;6627;50.920;12.050;2022-10-17T03:04:33;13.00;99.90
13123;DHT22;6627;50.920;12.050;2022-10-17T03:07:01;13.10;99.90
13123;DHT22;6627;50.920;12.050;2022-10-17T03:09:28;13.10;99.90
13123;DHT22;6627;50.920;12.050;2022-10-17T03:11:55;13.10;99.90
13123;DHT22;6627;50.920;12.050;2022-10-17T03:14:23;12.80;99.90
13123;DHT22;6627;50.920;12.050;2022-10-17T03:16:50;12.60;99.90
13123;DHT22;6627;50.920;12.050;2022-10-17T03:19:17;12.60;99.90
13123;DHT22;6627;50.920;12.050;2022-10-17T03:21:47;12.50;99.90
13123;DHT22;6627;50.920;12.050;2022-10-17T03:24:14;12.50;99.90
13123;DHT22;6627;50.920;12.050;2022-10-17T03:26:41;12.50;99.90
13123;DHT22;6627;50.920;12.050;2022-10-17T03:29:08;12.40;99.90
13123;DHT22;6627;50.920;12.050;2022-10-17T03:31:36;12.50;99.90
13123;DHT22;6627;50.920;12.050;2022-10-17T03:34:03;12.30;99.90
13123;DHT22;6627;50.920;12.050;2022-10-17T03:36:30;12.40;99.90
13123;DHT22;6627;50.920;12.050;2022-10-17T03:38:59;12.30;99.90
13123;DHT22;6627;50.920;12.050;2022-10-17T03:41:26;12.20;99.90
13123;DHT22;6627;50.920;12.050;2022-10-17T03:43:53;12.20;99.90
13123;DHT22;6627;50.920;12.050;2022-10-17T03:46:20;12.20;99.90
13123;DHT22;6627;50.920;12.050;2022-10-17T03:48:48;12.10;99.90
13123;DHT22;6627;50.920;12.050;2022-10-17T03:51:15;12.10;99.90
13123;DHT22;6627;50.920;12.050;2022-10-17T03:53:42;12.00;99.90
13123;DHT22;6627;50.920;12.050;2022-10-17T03:56:13;12.00;99.90
13123;DHT22;6627;50.920;12.050;2022-10-17T03:58:42;11.90;99.90
13123;DHT22;6627;50.920;12.050;2022-10-17T04:01:11;11.80;99.90
13123;DHT22;6627;50.920;12.050;2022-10-17T04:03:41;11.70;99.90
13123;DHT22;6627;50.920;12.050;2022-10-17T04:06:11;11.70;99.90
13123;DHT22;6627;50.920;12.050;2022-10-17T04:08:39;11.70;99.90
13123;DHT22;6627;50.920;12.050;2022-10-17T04:11:08;11.60;99.90
13123;DHT22;6627;50.920;12.050;2022-10-17T04:13:39;11.70;99.90
13123;DHT22;6627;50.920;12.050;2022-10-17T04:16:08;11.70;99.90
13123;DHT22;6627;50.920;12.050;2022-10-17T04:18:38;11.80;99.90
13123;DHT22;6627;50.920;12.050;2022-10-17T04:21:06;11.80;99.90
13123;DHT22;6627;50.920;12.050;2022-10-17T04:23:34;11.80;99.90
13123;DHT22;6627;50.920;12.050;2022-10-17T04:26:03;11.90;99.90
13123;DHT22;6627;50.920;12.050;2022-10-17T04:28:31;11.90;99.90
13123;DHT22;6627;50.920;12.050;2022-10-17T04:31:03;12.00;99.90
13123;DHT22;6627;50.920;12.050;2022-10-17T04:33:32;12.00;99.90
13123;DHT22;6627;50.920;12.050;2022-10-17T04:36:01;12.00;99.90
13123;DHT22;6627;50.920;12.050;2022-10-17T04:38:30;12.10;99.90
13123;DHT22;6627;50.920;12.050;2022-10-17T04:40:58;12.10;99.90
13123;DHT22;6627;50.920;12.050;2022-10-17T04:43:28;12.00;99.90
13123;DHT22;6627;50.920;12.050;2022-10-17T04:45:56;11.90;99.90
13123;DHT22;6627;50.920;12.050;2022-10-17T04:48:25;11.80;99.90
13123;DHT22;6627;50.920;12.050;2022-10-17T04:50:53;11.80;99.90
13123;DHT22;6627;50.920;12.050;2022-10-17T04:53:21;11.90;99.90
13123;DHT22;6627;50.920;12.050;2022-10-17T04:55:49;11.80;99.90
13123;DHT22;6627;50.920;12.050;2022-10-17T04:58:17;11.80;99.90
13123;DHT22;6627;50.920;12.050;2022-10-17T05:00:45;11.70;99.90
13123;DHT22;6627;50.920;12.050;2022-10-17T05:03:12;11.70;99.90
13123;DHT22;6627;50.920;12.050;2022-10-17T05:05:41;11.80;99.90
13123;DHT22;6627;50.920;12.050;2022-10-17T05:08:10;11.90;99.90
13123;DHT22;6627;50.920;12.050;2022-10-17T05:10:38;11.70;99.90
13123;DHT22;6627;50.920;12.050;2022-10-17T05:13:06;11.60;99.90
13123;DHT22;6627;50.920;12.050;2022-10-17T05:15:35;11.70;99.90
13123;DHT22;6627;50.920;12.050;2022-10-17T05:18:04;11.60;99.90
13123;DHT22;6627;50.920;12.050;2022-10-17T05:20:32;11.60;99.90
13123;DHT22;6627;50.920;12.050;2022-10-17T05:23:01;11.70;99.90
13123;DHT22;6627;50.920;12.050;2022-10-17T05:25:29;11.70;99.90
13123;DHT22;6627;50.920;12.050;2022-10-17T05:27:56;11.70;99.90
13123;DHT22;6627;50.920;12.050;2022-10-17T05:30:23;11.50;99.90
13123;DHT22;6627;50.920;12.050;2022-10-17T05:32:51;11.50;99.90
13123;DHT22;6627;50.920;12.050;2022-10-17T05:35:20;11.50;99.90
13123;DHT22;6627;50.920;12.050;2022-10-17T05:37:47;11.50;99.90
13123;DHT22;6627;50.920;12.050;2022-10-17T05:40:16;11.60;99.90
13123;DHT22;6627;50.920;12.050;2022-10-17T05:42:47;11.60;99.90
13123;DHT22;6627;50.920;12.050;2022-10-17T05:45:15;11.60;99.90
13123;DHT22;6627;50.920;12.050;2022-10-17T05:47:42;11.60;99.90
13123;DHT22;6627;50.920;12.050;2022-10-17T05:50:10;11.70;99.90
13123;DHT22;6627;50.920;12.050;2022-10-17T05:52:37;11.70;99.90
13123;DHT22;6627;50.920;12.050;2022-10-17T05:55:05;11.80;99.90
13123;DHT22;6627;50.920;12.050;2022-10-17T05:57:34;11.80;99.90
13123;DHT22;6627;50.920;12.050;2022-10-17T06:00:03;11.80;99.90
13123;DHT22;6627;50.920;12.050;2022-10-17T06:02:31;11.90;99.90
13123;DHT22;6627;50.920;12.050;2022-10-17T06:04:59;12.00;99.90
13123;DHT22;6627;50.920;12.050;2022-10-17T06:07:26;12.00;99.90
13123;DHT22;6627;50.920;12.050;2022-10-17T06:09:53;12.00;99.90
13123;DHT22;6627;50.920;12.050;2022-10-17T06:12:20;12.00;99.90
13123;DHT22;6627;50.920;12.050;2022-10-17T06:14:49;12.10;99.90
13123;DHT22;6627;50.920;12.050;2022-10-17T06:17:16;12.00;99.90
13123;DHT22;6627;50.920;12.050;2022-10-17T06:19:44;12.10;99.90
13123;DHT22;6627;50.920;12.050;2022-10-17T06:22:11;12.20;99.90
13123;DHT22;6627;50.920;12.050;2022-10-17T06:24:39;12.30;99.90
13123;DHT22;6627;50.920;12.050;2022-10-17T06:27:07;12.30;99.90
13123;DHT22;6627;50.920;12.050;2022-10-17T06:29:34;12.40;99.90
13123;DHT22;6627;50.920;12.050;2022-10-17T06:32:04;12.50;99.90
13123;DHT22;6627;50.920;12.050;2022-10-17T06:34:34;12.70;99.90
13123;DHT22;6627;50.920;12.050;2022-10-17T06:37:01;12.90;99.90
13123;DHT22;6627;50.920;12.050;2022-10-17T06:39:28;13.10;99.90
13123;DHT22;6627;50.920;12.050;2022-10-17T06:41:58;13.20;99.90
13123;DHT22;6627;50.920;12.050;2022-10-17T06:44:26;13.20;99.90
13123;DHT22;6627;50.920;12.050;2022-10-17T06:46:56;13.40;99.90
13123;DHT22;6627;50.920;12.050;2022-10-17T06:49:25;13.60;99.90
13123;DHT22;6627;50.920;12.050;2022-10-17T06:51:53;13.70;99.90
13123;DHT22;6627;50.920;12.050;2022-10-17T06:54:21;13.70;99.90
13123;DHT22;6627;50.920;12.050;2022-10-17T06:56:48;13.80;99.90
13123;DHT22;6627;50.920;12.050;2022-10-17T06:59:15;13.90;99.90
13123;DHT22;6627;50.920;12.050;2022-10-17T07:01:43;13.90;99.90
13123;DHT22;6627;50.920;12.050;2022-10-17T07:04:10;14.00;99.90
13123;DHT22;6627;50.920;12.050;2022-10-17T07:06:39;14.00;99.90
13123;DHT22;6627;50.920;12.050;2022-10-17T07:09:07;14.00;99.90
13123;DHT22;6627;50.920;12.050;2022-10-17T07:11:34;14.00;99.90
13123;DHT22;6627;50.920;12.050;2022-10-17T07:14:02;14.10;99.90
13123;DHT22;6627;50.920;12.050;2022-10-17T07:16:30;14.10;99.90
13123;DHT22;6627;50.920;12.050;2022-10-17T07:18:57;14.20;99.90
13123;DHT22;6627;50.920;12.050;2022-10-17T07:21:25;14.20;99.90
13123;DHT22;6627;50.920;12.050;2022-10-17T07:23:53;14.30;99.90
13123;DHT22;6627;50.920;12.050;2022-10-17T07:26:20;14.40;99.90
13123;DHT22;6627;50.920;12.050;2022-10-17T07:28:52;14.50;99.90
13123;DHT22;6627;50.920;12.050;2022-10-17T07:31:22;14.60;99.90
13123;DHT22;6627;50.920;12.050;2022-10-17T07:33:50;14.70;99.90
13123;DHT22;6627;50.920;12.050;2022-10-17T07:36:18;14.90;99.90
13123;DHT22;6627;50.920;12.050;2022-10-17T07:38:46;15.00;99.90
13123;DHT22;6627;50.920;12.050;2022-10-17T07:41:15;15.10;99.90
13123;DHT22;6627;50.920;12.050;2022-10-17T07:43:44;15.20;99.90
13123;DHT22;6627;50.920;12.050;2022-10-17T07:46:12;15.30;99.90
13123;DHT22;6627;50.920;12.050;2022-10-17T07:48:39;15.40;99.90
13123;DHT22;6627;50.920;12.050;2022-10-17T07:51:08;15.40;99.90
13123;DHT22;6627;50.920;12.050;2022-10-17T07:53:36;15.50;99.90
13123;DHT22;6627;50.920;12.050;2022-10-17T07:56:05;15.60;99.90
13123;DHT22;6627;50.920;12.050;2022-10-17T07:58:36;15.60;99.90
13123;DHT22;6627;50.920;12.050;2022-10-17T08:01:05;15.80;99.90
